Погода Итау-ди-Минасна 2 недели

Минас-Жерайс, Бразилия

21 июля-03 августа
  • 21июля
    Сегодня
    +12°
    +27°
    Ясно и безоблачно
    ВремяПогодаТемператураВлажностьДавлениеВетер, м/сВероятность осадков
    00:00Ясно и безоблачно+17°C65 %695 мм2.7 м/с5 %
    03:00Ясно и безоблачно+16°C70 %695 мм3.8 м/с5 %
    06:00Ясно и безоблачно+13°C77 %695 мм3.9 м/с5 %
    09:00Ясно и безоблачно+18°C59 %697 мм3.1 м/с5 %
    12:00Ясно и безоблачно+23°C43 %697 мм2.5 м/с5 %
    15:00Ясно и безоблачно+26°C32 %696 мм2.0 м/с5 %
    18:00Ясно и безоблачно+22°C45 %695 мм2.3 м/с5 %
    21:00Ясно и безоблачно+19°C55 %696 мм2.8 м/с5 %
  • 22июля
    Понедельник
    +13°
    +28°
    Ясно и безоблачно
    ВремяПогодаТемператураВлажностьДавлениеВетер, м/сВероятность осадков
    00:00Ясно и безоблачно+17°C64 %696 мм2.5 м/с5 %
    03:00Ясно и безоблачно+14°C77 %694 мм1.5 м/с5 %
    06:00Ясно и безоблачно+13°C80 %694 мм2.2 м/с5 %
    09:00Ясно и безоблачно+19°C61 %697 мм1.2 м/с5 %
    12:00Ясно и безоблачно+25°C36 %697 мм1.1 м/с5 %
    15:00Ясно и безоблачно+28°C31 %696 мм0.8 м/с5 %
    18:00Ясно и безоблачно+23°C46 %696 мм1.9 м/с5 %
    21:00Ясно и безоблачно+20°C54 %696 мм2.6 м/с5 %
  • 23июля
    Вторник
    +13°
    +28°
    Ясно и безоблачно
    ВремяПогодаТемператураВлажностьДавлениеВетер, м/сВероятность осадков
    00:00Ясно и безоблачно+16°C61 %695 мм2.2 м/с5 %
    03:00Ясно и безоблачно+14°C69 %694 мм1.6 м/с5 %
    06:00Ясно и безоблачно+14°C80 %695 мм2.8 м/с5 %
    09:00Ясно и безоблачно+20°C59 %698 мм2.3 м/с5 %
    12:00Ясно и безоблачно+25°C40 %698 мм3.0 м/с5 %
    15:00Ясно и безоблачно+27°C26 %696 мм3.1 м/с5 %
    18:00Ясно и безоблачно+23°C37 %696 мм2.2 м/с5 %
    21:00Ясно и безоблачно+19°C41 %696 мм2.4 м/с5 %
  • 24июля
    Среда
    +13°
    +28°
    Небольшая облачность
    ВремяПогодаТемператураВлажностьДавлениеВетер, м/сВероятность осадков
    00:00Ясно и безоблачно+17°C55 %696 мм2.5 м/с5 %
    03:00Практически безоблачно+16°C69 %695 мм3.3 м/с5 %
    06:00Ясно и безоблачно+14°C77 %695 мм3.3 м/с5 %
    09:00Ясно и безоблачно+20°C57 %698 мм3.7 м/с5 %
    12:00Облачно с прояснениями+24°C41 %698 мм3.0 м/с5 %
    15:00Небольшая облачность+27°C29 %697 мм2.3 м/с5 %
    18:00Ясно и безоблачно+23°C44 %696 мм2.0 м/с5 %
    21:00Практически безоблачно+20°C54 %696 мм3.1 м/с5 %
  • 25июля
    Четверг
    +12°
    +28°
    Ясно и безоблачно
    ВремяПогодаТемператураВлажностьДавлениеВетер, м/сВероятность осадков
    00:00Ясно и безоблачно+17°C66 %696 мм2.1 м/с5 %
    03:00Ясно и безоблачно+14°C77 %694 мм2.0 м/с5 %
    06:00Ясно и безоблачно+14°C76 %695 мм2.8 м/с5 %
    09:00Ясно и безоблачно+19°C56 %697 мм2.1 м/с5 %
    12:00Ясно и безоблачно+25°C34 %697 мм1.9 м/с5 %
    15:00Ясно и безоблачно+28°C27 %695 мм1.4 м/с5 %
    18:00Ясно и безоблачно+26°C32 %695 мм0.6 м/с5 %
    21:00Ясно и безоблачно+19°C46 %694 мм2.2 м/с5 %
Мы используем cookies
Соглашаюсь